sensor_id;sensor_type;location;lat;lon;timestamp;temperature;humidity
67603;DHT22;54417;47.454;18.918;2022-12-05T00:03:33;5.38;86.28
67603;DHT22;54417;47.454;18.918;2022-12-05T00:08:57;5.43;86.74
67603;DHT22;54417;47.454;18.918;2022-12-05T00:14:22;5.43;86.11
67603;DHT22;54417;47.454;18.918;2022-12-05T00:19:47;5.36;86.32
67603;DHT22;54417;47.454;18.918;2022-12-05T00:25:17;5.27;86.94
67603;DHT22;54417;47.454;18.918;2022-12-05T00:30:41;5.22;86.83
67603;DHT22;54417;47.454;18.918;2022-12-05T00:36:09;5.28;86.91
67603;DHT22;54417;47.454;18.918;2022-12-05T00:41:33;5.17;86.70
67603;DHT22;54417;47.454;18.918;2022-12-05T00:46:57;5.25;86.84
67603;DHT22;54417;47.454;18.918;2022-12-05T00:52:22;5.21;86.73
67603;DHT22;54417;47.454;18.918;2022-12-05T00:57:45;5.17;87.28
67603;DHT22;54417;47.454;18.918;2022-12-05T01:03:09;5.32;86.75
67603;DHT22;54417;47.454;18.918;2022-12-05T01:08:34;5.14;87.00
67603;DHT22;54417;47.454;18.918;2022-12-05T01:13:58;5.05;87.36
67603;DHT22;54417;47.454;18.918;2022-12-05T01:19:23;5.09;87.05
67603;DHT22;54417;47.454;18.918;2022-12-05T01:24:51;4.94;87.47
67603;DHT22;54417;47.454;18.918;2022-12-05T01:30:15;4.98;87.76
67603;DHT22;54417;47.454;18.918;2022-12-05T01:35:39;5.01;87.78
67603;DHT22;54417;47.454;18.918;2022-12-05T01:41:07;4.94;88.31
67603;DHT22;54417;47.454;18.918;2022-12-05T01:46:32;5.00;88.12
67603;DHT22;54417;47.454;18.918;2022-12-05T01:51:59;5.01;88.19
67603;DHT22;54417;47.454;18.918;2022-12-05T01:57:25;4.95;88.10
67603;DHT22;54417;47.454;18.918;2022-12-05T02:02:51;4.92;88.37
67603;DHT22;54417;47.454;18.918;2022-12-05T02:08:15;4.88;88.77
67603;DHT22;54417;47.454;18.918;2022-12-05T02:13:57;4.97;88.38
67603;DHT22;54417;47.454;18.918;2022-12-05T02:19:53;4.90;88.79
67603;DHT22;54417;47.454;18.918;2022-12-05T02:31:27;4.97;88.75
67603;DHT22;54417;47.454;18.918;2022-12-05T02:36:57;4.92;88.69
67603;DHT22;54417;47.454;18.918;2022-12-05T02:42:29;4.87;88.93
67603;DHT22;54417;47.454;18.918;2022-12-05T02:47:58;4.97;88.96
67603;DHT22;54417;47.454;18.918;2022-12-05T02:53:23;5.00;88.91
67603;DHT22;54417;47.454;18.918;2022-12-05T02:58:52;4.97;89.16
67603;DHT22;54417;47.454;18.918;2022-12-05T03:04:20;4.91;89.21
67603;DHT22;54417;47.454;18.918;2022-12-05T03:09:47;4.98;89.32
67603;DHT22;54417;47.454;18.918;2022-12-05T03:15:15;4.84;89.51
67603;DHT22;54417;47.454;18.918;2022-12-05T03:20:45;5.00;89.54
67603;DHT22;54417;47.454;18.918;2022-12-05T03:26:15;4.95;89.58
67603;DHT22;54417;47.454;18.918;2022-12-05T03:31:45;4.91;89.66
67603;DHT22;54417;47.454;18.918;2022-12-05T03:37:19;4.90;90.01
67603;DHT22;54417;47.454;18.918;2022-12-05T03:42:49;4.94;89.77
67603;DHT22;54417;47.454;18.918;2022-12-05T03:48:18;4.90;90.05
67603;DHT22;54417;47.454;18.918;2022-12-05T03:53:48;4.77;90.11
67603;DHT22;54417;47.454;18.918;2022-12-05T03:59:18;4.88;90.29
67603;DHT22;54417;47.454;18.918;2022-12-05T04:04:48;4.85;90.45
67603;DHT22;54417;47.454;18.918;2022-12-05T04:10:19;4.90;90.30
67603;DHT22;54417;47.454;18.918;2022-12-05T04:15:53;4.88;90.40
67603;DHT22;54417;47.454;18.918;2022-12-05T04:21:40;4.80;90.54
67603;DHT22;54417;47.454;18.918;2022-12-05T04:27:16;4.87;90.53
67603;DHT22;54417;47.454;18.918;2022-12-05T04:32:45;4.87;90.46
67603;DHT22;54417;47.454;18.918;2022-12-05T04:38:16;4.84;90.52
67603;DHT22;54417;47.454;18.918;2022-12-05T04:43:43;4.83;90.68
67603;DHT22;54417;47.454;18.918;2022-12-05T04:49:11;4.77;90.57
67603;DHT22;54417;47.454;18.918;2022-12-05T04:54:38;4.83;90.62
67603;DHT22;54417;47.454;18.918;2022-12-05T05:00:06;4.73;90.83
67603;DHT22;54417;47.454;18.918;2022-12-05T05:05:30;4.79;90.58
67603;DHT22;54417;47.454;18.918;2022-12-05T05:11:03;4.74;90.67
67603;DHT22;54417;47.454;18.918;2022-12-05T05:16:31;4.95;90.55
67603;DHT22;54417;47.454;18.918;2022-12-05T05:21:55;4.95;90.33
67603;DHT22;54417;47.454;18.918;2022-12-05T05:27:18;4.83;90.48
67603;DHT22;54417;47.454;18.918;2022-12-05T05:32:44;4.85;90.65
67603;DHT22;54417;47.454;18.918;2022-12-05T05:38:07;4.87;90.73
67603;DHT22;54417;47.454;18.918;2022-12-05T05:43:31;4.91;90.37
67603;DHT22;54417;47.454;18.918;2022-12-05T05:48:57;4.90;90.44
67603;DHT22;54417;47.454;18.918;2022-12-05T05:54:20;4.80;90.72
67603;DHT22;54417;47.454;18.918;2022-12-05T05:59:44;4.83;90.48
67603;DHT22;54417;47.454;18.918;2022-12-05T06:05:09;4.77;90.94
67603;DHT22;54417;47.454;18.918;2022-12-05T06:10:33;4.92;90.73
67603;DHT22;54417;47.454;18.918;2022-12-05T06:15:57;4.92;90.37
67603;DHT22;54417;47.454;18.918;2022-12-05T06:21:22;4.97;90.50
67603;DHT22;54417;47.454;18.918;2022-12-05T06:26:46;4.90;90.59
67603;DHT22;54417;47.454;18.918;2022-12-05T06:32:09;4.98;90.50
67603;DHT22;54417;47.454;18.918;2022-12-05T06:37:36;4.92;90.66
67603;DHT22;54417;47.454;18.918;2022-12-05T06:43:00;5.02;90.68
67603;DHT22;54417;47.454;18.918;2022-12-05T06:48:23;4.95;90.70
67603;DHT22;54417;47.454;18.918;2022-12-05T06:53:49;5.09;90.57
67603;DHT22;54417;47.454;18.918;2022-12-05T06:59:12;5.17;90.31
67603;DHT22;54417;47.454;18.918;2022-12-05T07:04:36;5.34;89.91
67603;DHT22;54417;47.454;18.918;2022-12-05T07:10:01;5.21;90.13
67603;DHT22;54417;47.454;18.918;2022-12-05T07:15:25;5.17;90.30
67603;DHT22;54417;47.454;18.918;2022-12-05T07:20:55;5.31;90.28
67603;DHT22;54417;47.454;18.918;2022-12-05T07:26:36;5.50;89.96
67603;DHT22;54417;47.454;18.918;2022-12-05T07:32:01;5.60;89.47
67603;DHT22;54417;47.454;18.918;2022-12-05T07:37:25;5.60;89.54
67603;DHT22;54417;47.454;18.918;2022-12-05T07:42:50;5.67;89.41
67603;DHT22;54417;47.454;18.918;2022-12-05T07:48:16;5.79;89.09
67603;DHT22;54417;47.454;18.918;2022-12-05T07:53:40;5.83;89.04
67603;DHT22;54417;47.454;18.918;2022-12-05T07:59:06;5.85;88.94
67603;DHT22;54417;47.454;18.918;2022-12-05T08:04:30;5.85;88.93
67603;DHT22;54417;47.454;18.918;2022-12-05T08:09:54;5.90;88.92
67603;DHT22;54417;47.454;18.918;2022-12-05T08:15:19;5.85;88.96
67603;DHT22;54417;47.454;18.918;2022-12-05T08:20:43;6.00;88.53
67603;DHT22;54417;47.454;18.918;2022-12-05T08:26:09;5.90;88.56
67603;DHT22;54417;47.454;18.918;2022-12-05T08:31:38;6.10;88.47
67603;DHT22;54417;47.454;18.918;2022-12-05T08:37:02;6.28;87.61
67603;DHT22;54417;47.454;18.918;2022-12-05T08:42:26;6.42;87.63
67603;DHT22;54417;47.454;18.918;2022-12-05T08:47:51;6.53;86.98
67603;DHT22;54417;47.454;18.918;2022-12-05T08:53:15;6.49;86.53
67603;DHT22;54417;47.454;18.918;2022-12-05T08:58:39;6.52;86.63
67603;DHT22;54417;47.454;18.918;2022-12-05T09:04:04;6.72;86.62
67603;DHT22;54417;47.454;18.918;2022-12-05T09:09:28;6.68;86.46
67603;DHT22;54417;47.454;18.918;2022-12-05T09:14:53;6.69;86.23
67603;DHT22;54417;47.454;18.918;2022-12-05T09:20:19;6.79;85.88
67603;DHT22;54417;47.454;18.918;2022-12-05T09:25:43;6.96;86.21
67603;DHT22;54417;47.454;18.918;2022-12-05T09:31:09;6.85;85.89
67603;DHT22;54417;47.454;18.918;2022-12-05T09:36:35;6.89;86.22
67603;DHT22;54417;47.454;18.918;2022-12-05T09:42:14;6.61;86.53
67603;DHT22;54417;47.454;18.918;2022-12-05T09:47:46;6.57;86.72
67603;DHT22;54417;47.454;18.918;2022-12-05T09:53:23;6.80;86.39
67603;DHT22;54417;47.454;18.918;2022-12-05T09:58:49;6.89;85.74
67603;DHT22;54417;47.454;18.918;2022-12-05T10:04:38;6.85;86.10
67603;DHT22;54417;47.454;18.918;2022-12-05T10:10:22;7.06;85.92
67603;DHT22;54417;47.454;18.918;2022-12-05T10:15:50;7.27;85.46
67603;DHT22;54417;47.454;18.918;2022-12-05T10:21:21;7.50;84.10
67603;DHT22;54417;47.454;18.918;2022-12-05T10:26:50;7.61;84.13
67603;DHT22;54417;47.454;18.918;2022-12-05T10:32:17;7.92;82.97
67603;DHT22;54417;47.454;18.918;2022-12-05T10:37:45;8.06;83.03
67603;DHT22;54417;47.454;18.918;2022-12-05T10:43:13;7.97;81.95
67603;DHT22;54417;47.454;18.918;2022-12-05T10:48:39;8.17;81.89
67603;DHT22;54417;47.454;18.918;2022-12-05T10:54:14;8.29;81.47
67603;DHT22;54417;47.454;18.918;2022-12-05T10:59:45;8.02;81.97
67603;DHT22;54417;47.454;18.918;2022-12-05T11:05:11;7.71;83.15
67603;DHT22;54417;47.454;18.918;2022-12-05T11:10:36;7.99;82.88
67603;DHT22;54417;47.454;18.918;2022-12-05T11:16:05;7.76;83.14
67603;DHT22;54417;47.454;18.918;2022-12-05T11:21:40;8.21;82.66
67603;DHT22;54417;47.454;18.918;2022-12-05T11:27:19;8.12;82.26
67603;DHT22;54417;47.454;18.918;2022-12-05T11:32:44;8.30;81.70
67603;DHT22;54417;47.454;18.918;2022-12-05T11:38:10;8.41;81.47
67603;DHT22;54417;47.454;18.918;2022-12-05T11:43:45;8.36;80.80
67603;DHT22;54417;47.454;18.918;2022-12-05T11:49:34;8.26;81.43
67603;DHT22;54417;47.454;18.918;2022-12-05T11:55:12;7.94;82.42
67603;DHT22;54417;47.454;18.918;2022-12-05T12:00:43;8.02;82.52
67603;DHT22;54417;47.454;18.918;2022-12-05T12:06:22;7.89;82.15
67603;DHT22;54417;47.454;18.918;2022-12-05T12:11:52;7.69;83.06
67603;DHT22;54417;47.454;18.918;2022-12-05T12:17:21;7.94;82.63
67603;DHT22;54417;47.454;18.918;2022-12-05T12:23:10;7.86;82.79
67603;DHT22;54417;47.454;18.918;2022-12-05T12:28:52;8.07;82.81
67603;DHT22;54417;47.454;18.918;2022-12-05T12:40:17;7.97;82.76
67603;DHT22;54417;47.454;18.918;2022-12-05T12:45:46;7.81;83.68
67603;DHT22;54417;47.454;18.918;2022-12-05T12:51:14;7.76;83.97
67603;DHT22;54417;47.454;18.918;2022-12-05T12:56:49;7.69;83.88
67603;DHT22;54417;47.454;18.918;2022-12-05T13:02:20;7.62;84.09
67603;DHT22;54417;47.454;18.918;2022-12-05T13:07:49;7.47;84.73
67603;DHT22;54417;47.454;18.918;2022-12-05T13:13:18;7.51;85.09
67603;DHT22;54417;47.454;18.918;2022-12-05T13:18:43;7.48;84.71
67603;DHT22;54417;47.454;18.918;2022-12-05T13:24:12;7.56;84.59
67603;DHT22;54417;47.454;18.918;2022-12-05T13:29:40;7.68;83.91
67603;DHT22;54417;47.454;18.918;2022-12-05T13:35:08;7.61;84.75
67603;DHT22;54417;47.454;18.918;2022-12-05T13:40:34;7.69;84.92
67603;DHT22;54417;47.454;18.918;2022-12-05T13:46:23;7.76;84.87
67603;DHT22;54417;47.454;18.918;2022-12-05T13:51:49;7.69;84.64
67603;DHT22;54417;47.454;18.918;2022-12-05T13:57:44;7.63;84.80
67603;DHT22;54417;47.454;18.918;2022-12-05T14:03:16;7.35;85.67
67603;DHT22;54417;47.454;18.918;2022-12-05T14:08:55;7.35;85.70
67603;DHT22;54417;47.454;18.918;2022-12-05T14:14:58;7.27;86.11
67603;DHT22;54417;47.454;18.918;2022-12-05T14:20:31;7.18;86.65
67603;DHT22;54417;47.454;18.918;2022-12-05T14:26:06;7.18;86.70
67603;DHT22;54417;47.454;18.918;2022-12-05T14:31:46;7.03;86.87
67603;DHT22;54417;47.454;18.918;2022-12-05T14:37:24;6.96;87.36
67603;DHT22;54417;47.454;18.918;2022-12-05T14:42:52;7.03;87.40
67603;DHT22;54417;47.454;18.918;2022-12-05T14:48:26;6.96;87.47
67603;DHT22;54417;47.454;18.918;2022-12-05T14:53:51;7.04;87.19
67603;DHT22;54417;47.454;18.918;2022-12-05T14:59:22;6.93;87.73
67603;DHT22;54417;47.454;18.918;2022-12-05T15:04:54;6.96;87.80
67603;DHT22;54417;47.454;18.918;2022-12-05T15:10:22;6.90;88.14
67603;DHT22;54417;47.454;18.918;2022-12-05T15:15:51;6.87;88.15
67603;DHT22;54417;47.454;18.918;2022-12-05T15:21:22;6.97;88.09
67603;DHT22;54417;47.454;18.918;2022-12-05T15:26:48;6.93;88.35
67603;DHT22;54417;47.454;18.918;2022-12-05T15:32:18;6.92;88.42
67603;DHT22;54417;47.454;18.918;2022-12-05T15:37:50;7.01;88.27
67603;DHT22;54417;47.454;18.918;2022-12-05T15:43:26;6.99;88.39
67603;DHT22;54417;47.454;18.918;2022-12-05T15:48:51;6.87;88.42
67603;DHT22;54417;47.454;18.918;2022-12-05T15:54:21;6.99;88.37
67603;DHT22;54417;47.454;18.918;2022-12-05T15:59:53;7.03;88.38
67603;DHT22;54417;47.454;18.918;2022-12-05T16:05:21;7.03;88.46
67603;DHT22;54417;47.454;18.918;2022-12-05T16:10:47;7.04;88.45
67603;DHT22;54417;47.454;18.918;2022-12-05T16:16:15;7.01;88.58
67603;DHT22;54417;47.454;18.918;2022-12-05T16:21:41;7.11;88.54
67603;DHT22;54417;47.454;18.918;2022-12-05T16:27:13;7.03;88.69
67603;DHT22;54417;47.454;18.918;2022-12-05T16:32:38;7.11;88.79
67603;DHT22;54417;47.454;18.918;2022-12-05T16:38:04;7.11;88.86
67603;DHT22;54417;47.454;18.918;2022-12-05T16:43:42;7.13;88.93
67603;DHT22;54417;47.454;18.918;2022-12-05T16:49:17;7.04;88.78
67603;DHT22;54417;47.454;18.918;2022-12-05T16:54:43;7.11;88.79
67603;DHT22;54417;47.454;18.918;2022-12-05T17:00:13;6.99;88.97
67603;DHT22;54417;47.454;18.918;2022-12-05T17:05:37;7.11;88.80
67603;DHT22;54417;47.454;18.918;2022-12-05T17:11:01;6.94;89.04
67603;DHT22;54417;47.454;18.918;2022-12-05T17:16:28;6.96;89.01
67603;DHT22;54417;47.454;18.918;2022-12-05T17:21:52;6.96;89.00
67603;DHT22;54417;47.454;18.918;2022-12-05T17:27:16;6.99;88.89
67603;DHT22;54417;47.454;18.918;2022-12-05T17:32:41;6.87;89.24
67603;DHT22;54417;47.454;18.918;2022-12-05T17:38:05;6.85;89.53
67603;DHT22;54417;47.454;18.918;2022-12-05T17:43:29;6.89;89.42
67603;DHT22;54417;47.454;18.918;2022-12-05T17:48:54;6.92;89.50
67603;DHT22;54417;47.454;18.918;2022-12-05T17:54:18;6.90;89.43
67603;DHT22;54417;47.454;18.918;2022-12-05T17:59:42;6.93;89.46
67603;DHT22;54417;47.454;18.918;2022-12-05T18:05:08;6.97;89.49
67603;DHT22;54417;47.454;18.918;2022-12-05T18:10:32;7.04;89.47
67603;DHT22;54417;47.454;18.918;2022-12-05T18:15:56;6.97;89.54
67603;DHT22;54417;47.454;18.918;2022-12-05T18:21:22;7.13;89.37
67603;DHT22;54417;47.454;18.918;2022-12-05T18:26:45;7.01;89.49
67603;DHT22;54417;47.454;18.918;2022-12-05T18:32:09;7.01;89.70
67603;DHT22;54417;47.454;18.918;2022-12-05T18:37:35;7.04;89.57
67603;DHT22;54417;47.454;18.918;2022-12-05T18:42:59;7.01;89.82
67603;DHT22;54417;47.454;18.918;2022-12-05T18:48:24;7.03;89.93
67603;DHT22;54417;47.454;18.918;2022-12-05T18:54:09;7.03;89.94
67603;DHT22;54417;47.454;18.918;2022-12-05T18:59:33;7.11;89.80
67603;DHT22;54417;47.454;18.918;2022-12-05T19:04:57;7.11;89.94
67603;DHT22;54417;47.454;18.918;2022-12-05T19:10:22;7.03;90.26
67603;DHT22;54417;47.454;18.918;2022-12-05T19:15:46;6.97;90.60
67603;DHT22;54417;47.454;18.918;2022-12-05T19:21:10;6.99;90.75
67603;DHT22;54417;47.454;18.918;2022-12-05T19:26:36;6.94;90.74
67603;DHT22;54417;47.454;18.918;2022-12-05T19:31:59;6.86;91.01
67603;DHT22;54417;47.454;18.918;2022-12-05T19:37:23;6.87;90.98
67603;DHT22;54417;47.454;18.918;2022-12-05T19:42:49;6.92;90.97
67603;DHT22;54417;47.454;18.918;2022-12-05T19:48:12;6.89;90.85
67603;DHT22;54417;47.454;18.918;2022-12-05T19:53:38;6.85;91.14
67603;DHT22;54417;47.454;18.918;2022-12-05T19:59:05;6.80;91.01
67603;DHT22;54417;47.454;18.918;2022-12-05T20:04:28;6.77;91.09
67603;DHT22;54417;47.454;18.918;2022-12-05T20:09:52;6.71;91.30
67603;DHT22;54417;47.454;18.918;2022-12-05T20:15:17;6.76;91.19
67603;DHT22;54417;47.454;18.918;2022-12-05T20:20:41;6.65;91.19
67603;DHT22;54417;47.454;18.918;2022-12-05T20:26:06;6.75;91.13
67603;DHT22;54417;47.454;18.918;2022-12-05T20:31:34;6.79;91.01
67603;DHT22;54417;47.454;18.918;2022-12-05T20:36:58;6.96;90.86
67603;DHT22;54417;47.454;18.918;2022-12-05T20:42:22;6.96;90.84
67603;DHT22;54417;47.454;18.918;2022-12-05T20:47:47;6.89;90.77
67603;DHT22;54417;47.454;18.918;2022-12-05T20:53:12;7.01;90.64
67603;DHT22;54417;47.454;18.918;2022-12-05T20:58:37;6.92;90.82
67603;DHT22;54417;47.454;18.918;2022-12-05T21:04:03;6.93;90.88
67603;DHT22;54417;47.454;18.918;2022-12-05T21:09:28;7.03;90.69
67603;DHT22;54417;47.454;18.918;2022-12-05T21:14:53;6.90;90.81
67603;DHT22;54417;47.454;18.918;2022-12-05T21:20:18;6.89;90.90
67603;DHT22;54417;47.454;18.918;2022-12-05T21:25:42;6.89;90.80
67603;DHT22;54417;47.454;18.918;2022-12-05T21:31:10;6.93;90.69
67603;DHT22;54417;47.454;18.918;2022-12-05T21:36:44;6.82;90.94
67603;DHT22;54417;47.454;18.918;2022-12-05T21:42:11;6.97;90.78
67603;DHT22;54417;47.454;18.918;2022-12-05T21:47:35;6.90;90.80
67603;DHT22;54417;47.454;18.918;2022-12-05T21:53:00;6.93;90.76
67603;DHT22;54417;47.454;18.918;2022-12-05T21:58:25;6.86;90.87
67603;DHT22;54417;47.454;18.918;2022-12-05T22:03:50;6.94;90.81
67603;DHT22;54417;47.454;18.918;2022-12-05T22:09:16;6.94;90.62
67603;DHT22;54417;47.454;18.918;2022-12-05T22:14:41;7.03;90.59
67603;DHT22;54417;47.454;18.918;2022-12-05T22:20:05;6.89;90.67
67603;DHT22;54417;47.454;18.918;2022-12-05T22:25:30;6.93;90.58
67603;DHT22;54417;47.454;18.918;2022-12-05T22:30:55;6.90;90.60
67603;DHT22;54417;47.454;18.918;2022-12-05T22:36:19;6.77;90.64
67603;DHT22;54417;47.454;18.918;2022-12-05T22:41:45;6.72;90.81
67603;DHT22;54417;47.454;18.918;2022-12-05T22:47:09;6.79;90.50
67603;DHT22;54417;47.454;18.918;2022-12-05T22:52:33;6.80;90.54
67603;DHT22;54417;47.454;18.918;2022-12-05T22:57:58;6.80;90.52
67603;DHT22;54417;47.454;18.918;2022-12-05T23:03:22;6.83;90.47
67603;DHT22;54417;47.454;18.918;2022-12-05T23:08:46;6.87;90.24
67603;DHT22;54417;47.454;18.918;2022-12-05T23:14:11;6.69;90.64
67603;DHT22;54417;47.454;18.918;2022-12-05T23:19:35;6.69;90.61
67603;DHT22;54417;47.454;18.918;2022-12-05T23:24:58;6.59;90.92
67603;DHT22;54417;47.454;18.918;2022-12-05T23:30:23;6.45;91.00
67603;DHT22;54417;47.454;18.918;2022-12-05T23:35:52;6.41;91.15
67603;DHT22;54417;47.454;18.918;2022-12-05T23:41:18;6.38;90.92
67603;DHT22;54417;47.454;18.918;2022-12-05T23:46:43;6.27;90.99
67603;DHT22;54417;47.454;18.918;2022-12-05T23:52:06;6.32;90.92
67603;DHT22;54417;47.454;18.918;2022-12-05T23:57:31;6.28;90.95
